createdAt,value
2023-05-13T00:04:43.148Z,7.63
2023-05-13T00:09:46.810Z,7.55
2023-05-13T00:14:50.534Z,6.70
2023-05-13T00:19:55.783Z,7.03
2023-05-13T00:24:59.504Z,8.48
2023-05-13T00:30:03.216Z,7.32
2023-05-13T00:35:09.320Z,10.77
2023-05-13T00:40:21.097Z,9.50
2023-05-13T00:45:24.958Z,8.45
2023-05-13T00:50:30.254Z,8.35
2023-05-13T00:55:33.900Z,9.00
2023-05-13T01:00:42.426Z,8.50
2023-05-13T01:05:56.940Z,6.82
2023-05-13T01:11:04.886Z,9.43
2023-05-13T01:16:12.239Z,7.50
2023-05-13T01:21:17.540Z,9.38
2023-05-13T01:26:24.633Z,7.47
2023-05-13T01:31:29.996Z,9.70
2023-05-13T01:36:34.545Z,6.32
2023-05-13T01:41:39.814Z,7.85
2023-05-13T01:46:45.050Z,7.82
2023-05-13T01:51:48.717Z,8.15
2023-05-13T01:56:54.049Z,9.85
2023-05-13T02:01:57.683Z,7.88
2023-05-13T02:07:01.347Z,10.30
2023-05-13T02:12:08.231Z,8.45
2023-05-13T02:17:11.845Z,8.50
2023-05-13T02:22:15.500Z,7.63
2023-05-13T02:27:20.799Z,9.02
2023-05-13T02:32:24.467Z,9.48
2023-05-13T02:37:28.083Z,11.32
2023-05-13T02:42:33.381Z,9.38
2023-05-13T02:47:37.014Z,9.98
2023-05-13T02:52:40.753Z,9.95
2023-05-13T02:57:46.026Z,14.98
2023-05-13T03:07:52.669Z,10.32
2023-05-13T03:12:58.065Z,8.75
2023-05-13T03:23:04.930Z,9.95
2023-05-13T03:28:10.302Z,9.15
2023-05-13T03:38:16.872Z,10.00
2023-05-13T03:43:23.122Z,12.70
2023-05-13T03:48:26.770Z,11.30
2023-05-13T03:53:30.558Z,12.18
2023-05-13T03:58:35.816Z,11.95
2023-05-13T04:03:39.426Z,14.63
2023-05-13T04:08:43.099Z,10.93
2023-05-13T04:13:49.328Z,12.13
2023-05-13T04:18:53.014Z,11.73
2023-05-13T04:23:56.657Z,13.25
2023-05-13T04:29:01.949Z,10.98
2023-05-13T04:34:05.545Z,12.68
2023-05-13T04:39:10.269Z,8.30
2023-05-13T04:44:15.550Z,12.93
2023-05-13T04:49:19.179Z,11.75
2023-05-13T04:54:23.320Z,10.63
2023-05-13T04:59:28.668Z,10.45
2023-05-13T05:04:32.279Z,10.80
2023-05-13T05:09:36.511Z,9.10
2023-05-13T05:14:41.843Z,12.20
2023-05-13T05:19:45.401Z,13.20
2023-05-13T05:24:49.011Z,11.85
2023-05-13T05:29:54.368Z,12.63
2023-05-13T05:34:57.972Z,11.13
2023-05-13T05:40:01.606Z,10.45
2023-05-13T05:45:07.789Z,12.68
2023-05-13T05:50:11.910Z,11.65
2023-05-13T05:55:15.534Z,10.07
2023-05-13T06:00:21.487Z,12.45
2023-05-13T06:05:25.171Z,11.57
2023-05-13T06:10:28.935Z,10.40
2023-05-13T06:15:34.435Z,12.25
2023-05-13T06:20:38.067Z,9.48
2023-05-13T06:25:41.731Z,8.88
2023-05-13T06:30:47.401Z,9.68
2023-05-13T06:35:51.007Z,9.02
2023-05-13T06:40:54.668Z,11.13
2023-05-13T06:45:59.924Z,8.13
2023-05-13T06:51:03.514Z,10.02
2023-05-13T06:56:07.755Z,14.40
2023-05-13T07:01:13.110Z,8.73
2023-05-13T07:06:16.822Z,9.38
2023-05-13T07:11:20.463Z,14.95
2023-05-13T07:16:26.340Z,12.25
2023-05-13T07:26:34.514Z,10.65
2023-05-13T07:31:39.878Z,12.98
2023-05-13T07:36:43.634Z,7.28
2023-05-13T07:41:47.256Z,9.68
2023-05-13T07:46:52.559Z,9.25
2023-05-13T07:51:56.365Z,10.65
2023-05-13T07:56:59.976Z,8.30
2023-05-13T08:02:05.553Z,8.82
2023-05-13T08:07:09.143Z,8.30
2023-05-13T08:12:12.808Z,11.13
2023-05-13T08:17:18.095Z,8.30
2023-05-13T08:22:21.711Z,9.53
2023-05-13T08:27:25.304Z,10.10
2023-05-13T08:32:30.576Z,16.35
2023-05-13T08:37:34.216Z,9.03
2023-05-13T08:42:40.102Z,8.48
2023-05-13T08:52:54.765Z,13.38
2023-05-13T08:57:58.401Z,9.83
2023-05-13T09:03:04.493Z,10.57
2023-05-13T09:08:09.409Z,14.27
2023-05-13T09:13:14.113Z,10.40
2023-05-13T09:18:19.777Z,10.93
2023-05-13T09:23:24.924Z,9.57
2023-05-13T09:28:28.548Z,8.45
2023-05-13T09:33:33.890Z,12.10
2023-05-13T09:38:37.506Z,10.20
2023-05-13T09:43:41.229Z,11.23
2023-05-13T09:48:46.620Z,12.57
2023-05-13T09:53:50.229Z,9.03
2023-05-13T09:58:54.154Z,11.02
2023-05-13T10:04:00.293Z,11.77
2023-05-13T10:09:07.290Z,11.90
2023-05-13T10:14:11.181Z,12.45
2023-05-13T10:19:16.687Z,9.50
2023-05-13T10:24:21.479Z,8.70
2023-05-13T10:29:27.285Z,10.13
2023-05-13T10:34:34.271Z,9.00
2023-05-13T10:40:02.983Z,12.30
2023-05-13T10:45:08.193Z,10.93
2023-05-13T10:50:26.120Z,10.77
2023-05-13T10:55:29.779Z,11.30
2023-05-13T11:00:33.685Z,13.75
2023-05-13T11:05:40.937Z,10.73
2023-05-13T11:10:55.182Z,8.10
2023-05-13T11:15:58.902Z,11.43
2023-05-13T11:21:07.409Z,11.10
2023-05-13T11:26:12.429Z,11.10
2023-05-13T11:31:17.585Z,8.10
2023-05-13T11:36:22.937Z,10.85
2023-05-13T11:41:26.810Z,11.67
2023-05-13T11:46:30.598Z,8.65
2023-05-13T11:51:36.447Z,9.60
2023-05-13T11:56:44.280Z,11.30
2023-05-13T12:01:58.891Z,9.13
2023-05-13T12:07:05.164Z,10.18
2023-05-13T12:12:09.011Z,10.75
2023-05-13T12:17:12.962Z,6.85
2023-05-13T12:22:21.988Z,9.70
2023-05-13T12:27:25.674Z,8.65
2023-05-13T12:32:29.345Z,10.82
2023-05-13T12:37:34.661Z,10.05
2023-05-13T12:42:38.580Z,11.63
2023-05-13T12:47:52.024Z,11.10
2023-05-13T12:52:58.080Z,8.02
2023-05-13T13:03:05.483Z,9.77
2023-05-13T13:08:10.888Z,9.27
2023-05-13T13:13:14.493Z,10.30
2023-05-13T13:18:19.497Z,12.20
2023-05-13T13:23:24.817Z,10.70
2023-05-13T13:28:28.580Z,11.73
2023-05-13T13:33:32.293Z,8.93
2023-05-13T13:38:38.455Z,6.53
2023-05-13T13:43:42.148Z,5.38
2023-05-13T13:48:45.780Z,4.43
2023-05-13T13:53:51.170Z,7.65
2023-05-13T13:58:54.768Z,7.90
2023-05-13T14:04:11.831Z,8.63
2023-05-13T14:09:17.209Z,7.85
2023-05-13T14:14:20.868Z,5.00
2023-05-13T14:19:24.518Z,6.13
2023-05-13T14:24:29.761Z,7.82
2023-05-13T14:29:33.340Z,6.37
2023-05-13T14:34:37.845Z,7.72
2023-05-13T14:39:43.110Z,5.82
2023-05-13T14:44:46.752Z,5.10
2023-05-13T14:49:50.399Z,7.78
2023-05-13T14:54:55.734Z,6.80
2023-05-13T15:00:00.118Z,7.77
2023-05-13T15:05:03.946Z,5.22
2023-05-13T15:10:11.803Z,6.82
2023-05-13T15:15:15.420Z,6.40
2023-05-13T15:20:19.280Z,5.80
2023-05-13T15:25:24.862Z,6.15
2023-05-13T15:30:30.661Z,5.80
2023-05-13T15:35:36.091Z,6.93
2023-05-13T15:40:41.445Z,5.72
2023-05-13T15:45:45.185Z,4.57
2023-05-13T15:50:49.070Z,4.15
2023-05-13T15:55:54.766Z,5.80
2023-05-13T16:06:01.340Z,5.65
2023-05-13T16:11:06.704Z,6.22
2023-05-13T16:16:10.407Z,4.30
2023-05-13T16:21:14.271Z,5.70
2023-05-13T16:26:19.640Z,5.00
2023-05-13T16:36:26.216Z,4.28
2023-05-13T16:41:31.502Z,5.30
2023-05-13T16:51:37.893Z,5.45
2023-05-13T16:56:43.683Z,3.30
2023-05-13T17:01:47.445Z,3.17
2023-05-13T17:06:51.134Z,3.60
2023-05-13T17:11:57.044Z,4.95
2023-05-13T17:17:00.736Z,4.10
2023-05-13T17:22:04.494Z,4.82
2023-05-13T17:27:09.828Z,5.57
2023-05-13T17:32:13.526Z,4.95
2023-05-13T17:37:17.148Z,6.50
2023-05-13T17:42:22.383Z,6.07
2023-05-13T17:47:26.066Z,5.50
2023-05-13T17:52:29.657Z,6.55
2023-05-13T17:57:34.963Z,6.03
2023-05-13T18:02:38.670Z,7.88
2023-05-13T18:07:42.281Z,6.00
2023-05-13T18:12:47.519Z,6.30
2023-05-13T18:17:51.356Z,5.55
2023-05-13T18:22:55.005Z,6.15
2023-05-13T18:28:00.312Z,6.18
2023-05-13T18:33:04.033Z,6.63
2023-05-13T18:38:07.692Z,8.02
2023-05-13T18:43:12.948Z,5.22
2023-05-13T18:48:16.589Z,8.48
2023-05-13T18:53:20.299Z,6.40
2023-05-13T18:58:25.773Z,5.32
2023-05-13T19:03:29.457Z,5.90
2023-05-13T19:08:33.172Z,7.33
2023-05-13T19:13:46.765Z,5.95
2023-05-13T19:18:51.162Z,4.97
2023-05-13T19:23:54.835Z,7.63
2023-05-13T19:29:00.202Z,6.80
2023-05-13T19:34:03.860Z,6.82
2023-05-13T19:39:07.509Z,6.10
2023-05-13T19:44:12.791Z,5.63
2023-05-13T19:49:16.378Z,6.53
2023-05-13T19:54:20.102Z,7.50
2023-05-13T19:59:25.504Z,6.37
2023-05-13T20:04:29.823Z,7.25
2023-05-13T20:09:33.492Z,7.32
2023-05-13T20:14:45.917Z,7.47
2023-05-13T20:19:50.285Z,7.15
2023-05-13T20:29:58.643Z,6.35
2023-05-13T20:35:02.258Z,5.82
2023-05-13T20:40:07.012Z,5.90
2023-05-13T20:45:13.152Z,7.07
2023-05-13T20:50:16.860Z,5.90
2023-05-13T20:55:20.600Z,9.77
2023-05-13T21:00:26.149Z,7.00
2023-05-13T21:05:29.925Z,8.88
2023-05-13T21:10:33.535Z,8.03
2023-05-13T21:15:38.843Z,5.70
2023-05-13T21:20:42.435Z,5.07
2023-05-13T21:25:46.302Z,5.80
2023-05-13T21:30:51.600Z,7.70
2023-05-13T21:35:55.643Z,6.68
2023-05-13T21:40:59.554Z,7.47
2023-05-13T21:46:04.834Z,7.65
2023-05-13T21:51:08.462Z,6.28
2023-05-13T21:56:12.050Z,4.82
2023-05-13T22:01:17.394Z,5.88
2023-05-13T22:06:20.967Z,5.80
2023-05-13T22:11:24.606Z,6.20
2023-05-13T22:16:29.986Z,5.88
2023-05-13T22:21:33.648Z,7.38
2023-05-13T22:26:37.325Z,5.05
2023-05-13T22:31:42.634Z,5.47
2023-05-13T22:36:46.301Z,6.47
2023-05-13T22:41:49.935Z,6.82
2023-05-13T22:46:55.220Z,4.32
2023-05-13T22:51:58.824Z,4.72
2023-05-13T22:57:02.464Z,6.65
2023-05-13T23:02:07.938Z,4.90
2023-05-13T23:07:11.679Z,4.57
2023-05-13T23:12:15.272Z,3.80
2023-05-13T23:17:21.545Z,6.40
2023-05-13T23:22:25.160Z,5.75
2023-05-13T23:27:28.801Z,4.47
2023-05-13T23:32:34.100Z,4.68
2023-05-13T23:37:38.398Z,4.68
2023-05-13T23:42:42.011Z,5.97
2023-05-13T23:47:47.285Z,5.00
2023-05-13T23:52:50.898Z,4.90
2023-05-13T23:57:54.543Z,4.78
